Tiempo atmosférico en la estación meteorológica de Arevalo, Ávila (820 m.)



Fecha
DESCASC
Temp. máxima en grados centígrados (hora)
DESCASC
Temp. mínima en grados centígrados (hora)
DESCASC
Temp. media en grados centígrados
DESCASC
Racha de viento máxima en m/sg (hora)
DESCASC
Velocidad máxima media en intervalos de 10 minutos(hora)
DESCASC
Precipitaciones diarias en mm
DESCASC
Precipitaciones de 00:00 a 06:00 en mm
DESCASC
Precipitaciones de 06:00 a 12:00 en mm
DESCASC
Precipitaciones de 12:00 a 18:00 en mm
DESCASC
Precipitaciones de 18:00 a 24:00 en mm
DESCASC
21-02-2021 13.9 (00:50) 2.4 (20:00) 8.1 14.17 (00:50) 8.06 (01:00) 9 0 0 2.6 6.4
20-02-2021 15.7 (15:40) 8 (00:20) 11.8 18.33 (11:40) 11.39 (11:40) 0 0 0 0 0
19-02-2021 17.8 (15:00) 3.1 (08:30) 10.4 10.56 (15:20) 6.67 (16:40) 0 0 0 0 0
18-02-2021 14.1 (12:40) 4.8 (00:00) 9.5 15.83 (13:30) 11.11 (14:00) 0 0 0 0 0
17-02-2021 15.1 (17:10) 5.1 (00:00) 10.1 6.94 (14:20) 3.61 (14:10) 0 0 0 0 0
16-02-2021 14.4 (15:20) 7.5 (00:00) 10.9 11.39 (15:10) 6.94 (16:00) 0 0 0 0 0
15-02-2021 15.3 (15:40) 4.8 (00:00) 10.1 11.11 (13:10) 7.5 (13:10) 0 0 0 0 0
14-02-2021 17 (16:10) 0.3 (00:00) 8.7 6.39 (13:50) 4.17 (12:30) 0 0 0 0 0
13-02-2021 13.5 (17:10) 0.1 (00:00) 6.8 7.5 (12:30) 5 (12:30) 0 0 0 0 0
12-02-2021 10.9 (17:10) 4.6 (00:00) 7.7 12.78 (12:00) 7.5 (12:20) 3.6 3.6 0 0 0
11-02-2021 14.1 (15:50) 6.8 (00:00) 10.5 11.67 (16:50) 7.5 (17:30) 0.4 0.2 0 0.2 0
10-02-2021 11.2 (17:10) 4 (00:00) 7.6 15.56 (03:20) 8.89 (03:20) 8.6 8.4 0.2 0 0
09-02-2021 8.4 (11:30) 3.2 (00:00) 5.8 16.39 (13:10) 9.72 (13:10) 9.6 0.8 0 4.2 4.6
08-02-2021 7.6 (14:50) 4.1 (00:00) 5.8 16.39 (15:10) 8.33 (12:30) 11.6 5.4 0.4 4 1.8
07-02-2021 7.9 (14:30) 2.7 (00:00) 5.3 11.67 (15:30) 6.67 (15:30) 3.2 0 0 1.6 1.6
06-02-2021 8.5 (00:20) 4 (00:00) 6.3 9.17 (03:30) 5 (03:30) 9.6 4.6 4.6 0.4 0
05-02-2021 12.4 (15:50) 3.8 (00:00) 8.1 8.61 (23:00) 5.28 (23:59) 1.4 0.4 0.8 0.2 0
04-02-2021 9.1 (12:40) 3.8 (00:00) 6.5 9.17 (13:30) 6.11 (13:50) 3.4 1.4 0.2 1.6 0.2
03-02-2021 12.7 (14:20) 3.6 (00:00) 8.1 11.39 (14:10) 6.94 (14:10) 4 0 0 0.2 3.8
02-02-2021 13.5 (13:20) 5.6 (00:00) 9.5 11.11 (12:10) 6.94 (13:50) 0 0 0 0 0
01-02-2021 12.2 (15:00) 7 (00:00) 9.6 14.72 (11:20) 9.72 (07:00) 0 0 0 0 0
31-01-2021 13.7 (16:50) 5.5 (00:00) 9.6 15.28 (12:40) 9.17 (11:30) 0.6 0 0.6 0 0
30-01-2021 9.8 (01:30) 5.4 (00:00) 7.6 17.78 (14:10) 10.56 (14:10) 3 2.4 0.4 0 0.2
29-01-2021 15 (16:50) 6.5 (00:00) 10.8 11.67 (21:40) 8.33 (21:40) 0 0 0 0 0
28-01-2021 17.9 (15:00) 4.7 (00:00) 11.3 9.17 (22:10) 6.11 (22:00) 0 0 0 0 0
27-01-2021 15.5 (16:30) 7.9 (00:00) 11.7 8.61 (02:00) 5.28 (02:00) 0.2 0.2 0 0 0
26-01-2021 13.8 (15:50) 8.7 (00:00) 11.3 8.61 (15:20) 5.28 (15:20) 2 1.2 0.4 0 0.4
25-01-2021 11.3 (14:30) 6.9 (00:00) 9.1 15.83 (06:10) 10.28 (11:20) 4.8 0 0 0.6 4.2

Gráficas

Temp. máximas Temp. mínimas Temp. medias Precipitaciones Rachas de viento máximas Velocidades máximas media en intervalos de 10 minutos

Datos horarios

Fecha y hora oficial Temperatura (ºC) Velocidad del viento (km/h) Dirección del viento Racha (km/h) Dirección de racha Precipitación (mm) Presión (hPa) Tendencia (hPa) Humedad (%)
2021-02-23 23:00:00 6.8 15 Sur 28 Sur 0 -- -- 77
2021-02-23 22:00:00 6.9 13 Sur 21 Sur 0 -- -- 76
2021-02-23 21:00:00 7.6 11 Sur 26 Sur 0 -- -- 72
2021-02-23 20:00:00 8.7 15 Sur 30 Sur 0 -- -- 66
2021-02-23 19:00:00 10.1 19 Sur 34 Sur 0 -- -- 61
2021-02-23 18:00:00 12 20 Sur 36 Sur 0 -- -- 52
2021-02-23 17:00:00 12.6 23 Sur 37 Sur 0 -- -- 52
2021-02-23 16:00:00 12.6 23 Sur 41 Sur 0 -- -- 54
2021-02-23 15:00:00 12.5 23 Sur 41 Sudeste 0 -- -- 53
2021-02-23 14:00:00 11.6 22 Sur 36 Sur 0 -- -- 56
2021-02-23 13:00:00 11.1 20 Sur 41 Sur 0 -- -- 56
2021-02-23 12:00:00 9.7 27 Sur 40 Sur 0 -- -- 63
2021-02-23 11:00:00 8.3 17 Sur 26 Sur 0 -- -- 69
2021-02-23 10:00:00 4.8 13 Sur 18 Sur 0 -- -- 83
2021-02-23 09:00:00 0.2 6 Sur 10 Sur 0 -- -- 91
2021-02-23 08:00:00 -1.8 5 Sur 8 Sudoeste 0 -- -- 91
2021-02-23 07:00:00 -1.8 4 Sur 10 Sudoeste 0 -- -- 90
2021-02-23 06:00:00 -1.8 4 Sudoeste 10 Sur 0 -- -- 91
2021-02-23 05:00:00 -1 9 Sur 13 Sur 0 -- -- 91
2021-02-23 04:00:00 -1.2 5 Sudoeste 10 Sur 0 -- -- 92
2021-02-23 03:00:00 -1.2 6 Sur 8 Sur 0 -- -- 94
2021-02-23 02:00:00 -0.7 4 Sudoeste 11 Sur 0 -- -- 92
2021-02-23 01:00:00 -0.3 5 Sudeste 10 Sudeste 0 -- -- 92
2021-02-23 00:00:00 -0.1 6 Sur 10 Sur 0 -- -- 92
2021-02-22 23:00:00 0.7 5 Sur 10 Sur 0 -- -- 90
2021-02-22 22:00:00 2.1 4 Sudoeste 6 Sur 0 -- -- 89
2021-02-22 21:00:00 3.3 0 Calma 6 Sudeste 0 -- -- 82
2021-02-22 20:00:00 5.6 0 Calma 4 Sudeste 0 -- -- 71
2021-02-22 19:00:00 7.7 3 Nordeste 12 Norte 0 -- -- 59
2021-02-22 18:00:00 9.2 7 Noroeste 13 Noroeste 0 -- -- 49
2021-02-22 17:00:00 8.9 8 Oeste 17 Oeste 0 -- -- 56
2021-02-22 16:00:00 8.9 7 Noroeste 20 Noroeste 0 -- -- 57
2021-02-22 15:00:00 8.6 8 Noroeste 23 Oeste 0 -- -- 58
2021-02-22 14:00:00 7.9 9 Noroeste 17 Oeste 0 -- -- 63
2021-02-22 13:00:00 7.1 9 Oeste 18 Noroeste 0 -- -- 67
2021-02-22 12:00:00 6.2 6 Noroeste 20 Noroeste 0 -- -- 73
2021-02-22 11:00:00 4.1 13 Noroeste 24 Noroeste 0 -- -- 84
2021-02-22 10:00:00 2.3 9 Oeste 25 Oeste 0 -- -- 95
2021-02-22 09:00:00 1.7 12 Oeste 24 Noroeste 0 -- -- 95
2021-02-22 08:00:00 1.7 13 Oeste 25 Noroeste 0 -- -- 95
2021-02-22 07:00:00 2.4 14 Noroeste 28 Noroeste 0 -- -- 94
2021-02-22 06:00:00 3 8 Noroeste 26 Oeste 0 -- -- 95
2021-02-22 05:00:00 3.3 15 Noroeste 28 Oeste 0 -- -- 94
2021-02-22 04:00:00 3.6 17 Noroeste 27 Noroeste 0 -- -- 94
2021-02-22 03:00:00 4 10 Oeste 20 Oeste 0 -- -- 96
2021-02-22 02:00:00 3.7 9 Noroeste 22 Noroeste 0.2 -- -- 95
2021-02-22 01:00:00 3.6 12 Noroeste 28 Noroeste 0 -- -- 95
2021-02-22 00:00:00 3.7 15 Noroeste 30 Noroeste 1 -- -- 96
2021-02-21 23:00:00 3.8 12 Noroeste 30 Norte 1 -- -- 95
2021-02-21 22:00:00 3 16 Sudoeste 28 Sudoeste 1.4 -- -- 96
2021-02-21 21:00:00 2.7 13 Oeste 25 Oeste 0.8 -- -- 96
2021-02-21 20:00:00 2.4 13 Oeste 27 Oeste 1.2 -- -- 94
2021-02-21 19:00:00 3.3 13 Oeste 31 Oeste 1 -- -- 94
2021-02-21 18:00:00 5.1 16 Noroeste 25 Noroeste 1.2 -- -- 93
2021-02-21 17:00:00 5.6 12 Oeste 21 Oeste 1.2 -- -- 93
2021-02-21 16:00:00 6.2 8 Noroeste 16 Noroeste 0.2 -- -- 89
2021-02-21 15:00:00 6.5 9 Oeste 23 Noroeste 0 -- -- 87
2021-02-21 14:00:00 6.3 14 Oeste 40 Oeste 0 -- -- 88
2021-02-21 13:00:00 10.9 13 Sudoeste 34 Sur 0 -- -- 62
2021-02-21 12:00:00 11.4 14 Sur 35 Sur 0 -- -- 58
2021-02-21 11:00:00 11.5 18 Sur 39 Sur 0 -- -- 60
2021-02-21 10:00:00 10.8 23 Sur 47 Sur 0 -- -- 61
2021-02-21 09:00:00 9.5 19 Sur 43 Sur 0 -- -- 63
2021-02-21 08:00:00 9.8 17 Sur 34 Sudeste 0 -- -- 59
2021-02-21 07:00:00 9.4 23 Sur 38 Sur 0 -- -- 62
2021-02-21 06:00:00 8.6 14 Sudeste 30 Sudeste 0 -- -- 67
2021-02-21 05:00:00 10.2 18 Sudeste 40 Sudeste 0 -- -- 59
2021-02-21 04:00:00 10.5 28 Sudeste 44 Sudeste 0 -- -- 56
2021-02-21 03:00:00 11.1 24 Sudeste 40 Sudeste 0 -- -- 51
2021-02-21 02:00:00 11.7 24 Sudeste 40 Sur 0 -- -- 43
2021-02-21 01:00:00 13.8 29 Sur 51 Sur 0 -- -- 30
2021-02-21 00:00:00 10.9 9 Norte 27 Nordeste 0 -- -- 39
2021-02-20 23:00:00 11 10 Sudeste 22 Este 0 -- -- 37
2021-02-20 22:00:00 11.6 13 Sudeste 29 Este 0 -- -- 34
2021-02-20 21:00:00 12.6 7 Sudeste 50 Sur 0 -- -- 30
2021-02-20 20:00:00 13.1 35 Sur 56 Sur 0 -- -- 30
2021-02-20 19:00:00 13.4 30 Sur 58 Sur 0 -- -- 31
2021-02-20 18:00:00 14.2 34 Sur 51 Sur 0 -- -- 33
2021-02-20 17:00:00 14.5 20 Sur 48 Sur 0 -- -- 32
2021-02-20 16:00:00 14.9 26 Sur 50 Sur 0 -- -- 31
2021-02-20 15:00:00 14.9 28 Sur 53 Sur 0 -- -- 33
2021-02-20 14:00:00 13.7 39 Sur 60 Sur 0 -- -- 34
2021-02-20 13:00:00 13.1 33 Sudoeste 52 Sudoeste 0 -- -- 34
2021-02-20 12:00:00 12.7 29 Sudoeste 66 Sudoeste 0 -- -- 36
2021-02-20 11:00:00 11.4 26 Sudoeste 47 Sur 0 -- -- 44
2021-02-20 10:00:00 10.9 28 Sudoeste 48 Sur 0 -- -- 50
2021-02-20 09:00:00 10.8 19 Sudoeste 37 Sur 0 -- -- 49
2021-02-20 08:00:00 9.5 10 Sudeste 37 Sur 0 -- -- 58
2021-02-20 07:00:00 10.1 22 Sur 38 Sur 0 -- -- 55
2021-02-20 06:00:00 9.9 22 Sur 33 Sur 0 -- -- 52
2021-02-20 05:00:00 9.1 14 Sur 33 Sur 0 -- -- 56
2021-02-20 04:00:00 9.8 25 Sur 39 Sur 0 -- -- 54
2021-02-20 03:00:00 10.3 20 Sur 34 Sur 0 -- -- 50
2021-02-20 02:00:00 10.5 25 Sur 34 Sur 0 -- -- 49
2021-02-20 01:00:00 8.7 10 Sur 20 Sur 0 -- -- 58
2021-02-20 00:00:00 8.9 8 Sur 27 Sur 0 -- -- 61
2021-02-19 23:00:00 10.4 18 Sur 26 Sur 0 -- -- 56
2021-02-19 22:00:00 10.7 15 Sur 23 Sur 0 -- -- 53
2021-02-19 21:00:00 10.9 10 Sur 30 Sur 0 -- -- 50
2021-02-19 20:00:00 10.7 7 Sudeste 16 Oeste 0 -- -- 50
2021-02-19 19:00:00 12.4 12 Oeste 22 Oeste 0 -- -- 44
2021-02-19 18:00:00 14 11 Sudoeste 26 Oeste 0 -- -- 41
2021-02-19 17:00:00 15.5 17 Oeste 35 Oeste 0 -- -- 38
2021-02-19 16:00:00 16.8 15 Oeste 38 Noroeste 0 -- -- 32
2021-02-19 15:00:00 17.8 14 Sudoeste 29 Sudoeste 0 -- -- 33
2021-02-19 14:00:00 16.9 18 Sudoeste 35 Sur 0 -- -- 36
2021-02-19 13:00:00 14.6 21 Sur 33 Sur 0 -- -- 45
2021-02-19 12:00:00 13.7 16 Sur 29 Sur 0 -- -- 50
2021-02-19 11:00:00 11.1 8 Sur 17 Sudoeste 0 -- -- 63
2021-02-19 10:00:00 8.4 8 Sudoeste 17 Sur 0 -- -- 73
2021-02-19 09:00:00 3.8 7 Sur 10 Sur 0 -- -- 86
2021-02-19 08:00:00 3.7 4 Sudoeste 13 Sur 0 -- -- 82
2021-02-19 07:00:00 3.8 9 Sur 13 Sur 0 -- -- 83
2021-02-19 06:00:00 3.5 9 Sur 15 Sur 0 -- -- 83
2021-02-19 05:00:00 3.8 9 Sur 12 Sudoeste 0 -- -- 81
2021-02-19 04:00:00 4.1 6 Oeste 10 Sur 0 -- -- 80
2021-02-19 03:00:00 5.5 5 Oeste 20 Sudoeste 0 -- -- 75
2021-02-19 02:00:00 5.7 9 Sudoeste 17 Sudoeste 0 -- -- 76
2021-02-19 01:00:00 6.2 6 Sudoeste 13 Sudoeste 0 -- -- 74
2021-02-19 00:00:00 7.3 8 Sur 12 Sur 0 -- -- 69
2021-02-18 23:00:00 7 5 Sudoeste 14 Sur 0 -- -- 69
2021-02-18 22:00:00 7.9 6 Sudoeste 12 Sur 0 -- -- 69
2021-02-18 21:00:00 8.8 9 Sudoeste 33 Noroeste 0 -- -- 69
2021-02-18 20:00:00 10.4 21 Oeste 39 Oeste 0 -- -- 60
2021-02-18 19:00:00 11.1 16 Oeste 40 Oeste 0 -- -- 56
2021-02-18 18:00:00 12.4 28 Oeste 48 Oeste 0 -- -- 50
2021-02-18 17:00:00 13.6 30 Oeste 47 Oeste 0 -- -- 43
2021-02-18 16:00:00 13.9 27 Oeste 44 Oeste 0 -- -- 48
2021-02-18 15:00:00 13.8 30 Oeste 51 Oeste 0 -- -- 48
2021-02-18 14:00:00 13.4 40 Oeste 57 Oeste 0 -- -- 46
2021-02-18 13:00:00 13 31 Oeste 43 Oeste 0 -- -- 50
2021-02-18 12:00:00 12.9 15 Oeste 30 Oeste 0 -- -- 51
2021-02-18 11:00:00 10.1 10 Sudoeste 18 Sudoeste 0 -- -- 60
2021-02-18 10:00:00 6.6 5 Sudoeste 11 Sur 0 -- -- 73
2021-02-18 09:00:00 5.3 6 Sudoeste 13 Sur 0 -- -- 72
2021-02-18 08:00:00 5.4 9 Sudoeste 17 Sudoeste 0 -- -- 71
2021-02-18 07:00:00 6.6 13 Sudoeste 21 Sudoeste 0 -- -- 64
2021-02-18 06:00:00 6.1 13 Sudoeste 18 Sudoeste 0 -- -- 68
2021-02-18 05:00:00 7.2 9 Sudoeste 20 Sudoeste 0 -- -- 66
2021-02-18 04:00:00 6.6 10 Sudoeste 20 Oeste 0 -- -- 77
2021-02-18 03:00:00 7.8 10 Sudoeste 18 Sudoeste 0 -- -- 68
2021-02-18 02:00:00 6.5 5 Sudoeste 10 Sudoeste 0 -- -- 79
2021-02-18 01:00:00 6.7 7 Oeste 13 Oeste 0 -- -- 74
2021-02-18 00:00:00 7 6 Sudoeste 12 Sudoeste 0 -- -- 70
2021-02-17 23:00:00 7.7 3 Oeste 18 Sudoeste 0 -- -- 69
2021-02-17 22:00:00 7.6 8 Sudoeste 14 Sudoeste 0 -- -- 79
2021-02-17 21:00:00 8.7 5 Sudoeste 11 Sudoeste 0 -- -- 84
2021-02-17 20:00:00 10.8 9 Sur 13 Sur 0 -- -- 76
2021-02-17 19:00:00 11.9 7 Sudoeste 18 Oeste 0 -- -- 72
2021-02-17 18:00:00 14.1 9 Oeste 18 Oeste 0 -- -- 62
2021-02-17 17:00:00 15 6 Oeste 18 Oeste 0 -- -- 62
2021-02-17 16:00:00 14.2 9 Oeste 16 Oeste 0 -- -- 66
2021-02-17 15:00:00 14 10 Oeste 25 Oeste 0 -- -- 65
2021-02-17 14:00:00 13.7 10 Oeste 22 Oeste 0 -- -- 67
2021-02-17 13:00:00 13.5 11 Oeste 18 Oeste 0 -- -- 64
2021-02-17 12:00:00 11.8 5 Sudoeste 10 Sur 0 -- -- 72
2021-02-17 11:00:00 9.7 4 Sudoeste 8 Sudoeste 0 -- -- 81
2021-02-17 10:00:00 7.3 5 Sur 8 Sur 0 -- -- 91
2021-02-17 09:00:00 5.6 5 Sur 11 Sudoeste 0 -- -- 94
2021-02-17 08:00:00 5.2 3 Sudoeste 9 Sur 0 -- -- 94
2021-02-17 07:00:00 5.9 6 Sudoeste 8 Sur 0 -- -- 95
2021-02-17 06:00:00 6.9 3 Sudeste 5 Sudeste 0 -- -- 92
2021-02-17 05:00:00 7.1 2 Sur 4 Sur 0 -- -- 92
2021-02-17 04:00:00 7.7 2 Sudoeste 6 Sudoeste 0 -- -- 90
2021-02-17 03:00:00 7.8 3 Sudoeste 8 Sudoeste 0 -- -- 89
2021-02-17 02:00:00 7.5 4 Sur 8 Sur 0 -- -- 90
2021-02-17 01:00:00 7.3 5 Sudoeste 10 Sur 0 -- -- 89
2021-02-17 00:00:00 8 3 Sudoeste 13 Sudoeste 0 -- -- 86
2021-02-16 23:00:00 9.6 10 Oeste 16 Oeste 0 -- -- 79
2021-02-16 22:00:00 9.7 10 Oeste 19 Oeste 0 -- -- 77
2021-02-16 21:00:00 10.2 15 Oeste 28 Oeste 0 -- -- 75
2021-02-16 20:00:00 10.5 16 Oeste 23 Oeste 0 -- -- 72
2021-02-16 19:00:00 11 16 Oeste 32 Oeste 0 -- -- 71
2021-02-16 18:00:00 11.9 17 Oeste 31 Oeste 0 -- -- 65
2021-02-16 17:00:00 13 22 Oeste 35 Oeste 0 -- -- 60
2021-02-16 16:00:00 13.8 25 Oeste 41 Noroeste 0 -- -- 48
2021-02-16 15:00:00 14.1 19 Noroeste 33 Noroeste 0 -- -- 54
2021-02-16 14:00:00 13.6 16 Oeste 38 Oeste 0 -- -- 59
2021-02-16 13:00:00 13.3 18 Noroeste 38 Oeste 0 -- -- 60
2021-02-16 12:00:00 13 19 Oeste 37 Oeste 0 -- -- 59
2021-02-16 11:00:00 10.7 13 Noroeste 26 Noroeste 0 -- -- 63
2021-02-16 10:00:00 8.6 12 Oeste 20 Oeste 0 -- -- 73
2021-02-16 09:00:00 7.9 14 Sudoeste 23 Sudoeste 0 -- -- 75
2021-02-16 08:00:00 7.7 16 Sudoeste 28 Sudoeste 0 -- -- 76
2021-02-16 07:00:00 7.7 19 Sur 31 Sur 0 -- -- 77
2021-02-16 06:00:00 8.2 20 Sudoeste 32 Sudoeste 0 -- -- 76
2021-02-16 05:00:00 8.7 18 Sudoeste 36 Sur 0 -- -- 74
2021-02-16 04:00:00 8.4 17 Sudoeste 29 Sudoeste 0 -- -- 74
2021-02-16 03:00:00 8.1 14 Sur 22 Sur 0 -- -- 75
2021-02-16 02:00:00 8.4 14 Sudoeste 26 Sur 0 -- -- 73
2021-02-16 01:00:00 9.4 18 Sur 30 Sur 0 -- -- 70
2021-02-16 00:00:00 10.1 15 Sur 33 Sur 0 -- -- 68
2021-02-15 23:00:00 10.3 20 Sur 32 Sudoeste 0 -- -- 68
2021-02-15 22:00:00 8.7 5 Sur 22 Sur 0 -- -- 76
2021-02-15 21:00:00 9 11 Sur 27 Sur 0 -- -- 74
2021-02-15 20:00:00 10.5 20 Sur 33 Sur 0 -- -- 67
2021-02-15 19:00:00 11.6 21 Sur 37 Sur 0 -- -- 63
2021-02-15 18:00:00 14.2 14 Sur 34 Sur 0 -- -- 54
2021-02-15 17:00:00 15.1 23 Sur 33 Sur 0 -- -- 51
2021-02-15 16:00:00 15.2 21 Sur 38 Sur 0 -- -- 52
2021-02-15 15:00:00 14.9 22 Sur 39 Sur 0 -- -- 51
2021-02-15 14:00:00 14.4 21 Sur 40 Sur 0 -- -- 54
2021-02-15 13:00:00 13.4 22 Sur 39 Sur 0 -- -- 55
2021-02-15 12:00:00 12 19 Sur 31 Sur 0 -- -- 63
2021-02-15 11:00:00 10.8 13 Sur 24 Sudoeste 0 -- -- 68
2021-02-15 10:00:00 8.4 10 Sur 15 Sudoeste 0 -- -- 79
2021-02-15 09:00:00 6.2 13 Sur 20 Sur 0 -- -- 85
2021-02-15 08:00:00 5.4 10 Sur 15 Sur 0 -- -- 88
2021-02-15 07:00:00 5.7 7 Sur 15 Sudoeste 0 -- -- 85
2021-02-15 06:00:00 6.1 10 Sudoeste 17 Sudoeste 0 -- -- 85
2021-02-15 05:00:00 5.5 9 Sur 13 Sudoeste 0 -- -- 85
2021-02-15 04:00:00 5.9 7 Sudoeste 13 Sudoeste 0 -- -- 84
2021-02-15 03:00:00 6 8 Sudoeste 13 Sudoeste 0 -- -- 81
2021-02-15 02:00:00 6.7 5 Sudoeste 12 Sudoeste 0 -- -- 78
2021-02-15 01:00:00 6.9 4 Sudoeste 13 Sur 0 -- -- 79
2021-02-15 00:00:00 7.6 8 Sudoeste 15 Sur 0 -- -- 77
2021-02-14 23:00:00 7.9 8 Sur 17 Sur 0 -- -- 77
2021-02-14 22:00:00 8.2 7 Sudoeste 14 Sudoeste 0 -- -- 77
2021-02-14 21:00:00 8.9 8 Sudoeste 15 Sur 0 -- -- 76
2021-02-14 20:00:00 10.2 8 Sur 16 Sur 0 -- -- 70
2021-02-14 19:00:00 12.2 11 Sur 20 Sur 0 -- -- 63
2021-02-14 18:00:00 14.7 12 Sur 22 Sudoeste 0 -- -- 56
2021-02-14 17:00:00 16.8 4 Sudoeste 11 Sudoeste 0 -- -- 46
2021-02-14 16:00:00 16.6 5 Sudoeste 16 Sudoeste 0 -- -- 42
2021-02-14 15:00:00 16.5 6 Sudoeste 19 Sudoeste 0 -- -- 40
2021-02-14 14:00:00 16.2 12 Sudoeste 23 Sudoeste 0 -- -- 44
2021-02-14 13:00:00 14.3 13 Sur 22 Sur 0 -- -- 51
2021-02-14 12:00:00 12.4 12 Sudoeste 19 Sudoeste 0 -- -- 68
2021-02-14 11:00:00 8.1 5 Sudoeste 12 Sur 0 -- -- 84
2021-02-14 10:00:00 3.5 5 Sur 10 Sur 0 -- -- 96
2021-02-14 09:00:00 1.1 3 Sur 8 Sudoeste 0 -- -- 99
2021-02-14 08:00:00 0.4 5 Sur 9 Sur 0 -- -- 98
2021-02-14 07:00:00 0.5 4 Sur 8 Sudoeste 0 -- -- 98
2021-02-14 06:00:00 0.9 4 Sudoeste 10 Sur 0 -- -- 98
2021-02-14 05:00:00 1.6 6 Sudoeste 11 Sur 0 -- -- 98
2021-02-14 04:00:00 1.8 6 Sur 9 Sudoeste 0 -- -- 98
2021-02-14 03:00:00 2.2 5 Sudoeste 11 Sur 0 -- -- 97
2021-02-14 02:00:00 3 8 Sudoeste 12 Sur 0 -- -- 98
2021-02-14 01:00:00 3.1 3 Sudoeste 7 Sudoeste 0 -- -- 96
2021-02-14 00:00:00 4 7 Sur 12 Sur 0 -- -- 96
2021-02-13 23:00:00 4.9 5 Sur 10 Sur 0 -- -- 94
2021-02-13 22:00:00 6.2 5 Sur 6 Sur 0 -- -- 92
2021-02-13 21:00:00 7.9 4 Oeste 9 Oeste 0 -- -- 88
2021-02-13 20:00:00 8.9 4 Noroeste 14 Oeste 0 -- -- 86
2021-02-13 19:00:00 11 3 Noroeste 13 Noroeste 0 -- -- 77
2021-02-13 18:00:00 12.5 7 Noroeste 18 Noroeste 0 -- -- 69
2021-02-13 17:00:00 13.2 11 Noroeste 25 Oeste 0 -- -- 68
2021-02-13 16:00:00 13.3 10 Noroeste 24 Noroeste 0 -- -- 67
2021-02-13 15:00:00 12.5 15 Noroeste 25 Noroeste 0 -- -- 64
2021-02-13 14:00:00 11.5 12 Noroeste 26 Oeste 0 -- -- 67
2021-02-13 13:00:00 10.2 15 Oeste 27 Oeste 0 -- -- 62
2021-02-13 08:00:00 -- -- -- -- -- -- -- -- --
2021-02-13 07:00:00 0.9 7 Sur 12 Sur 0 -- -- 96
2021-02-13 06:00:00 1.5 7 Sur 10 Sur 0 -- -- 96
2021-02-13 05:00:00 1.8 4 Sudoeste 9 Sur 0 -- -- 94
2021-02-13 04:00:00 3.2 5 Sur 13 Oeste 0 -- -- 93
2021-02-13 03:00:00 4.9 10 Oeste 24 Oeste 0 -- -- 89
2021-02-13 02:00:00 4 3 Sur 11 Sudoeste 0 -- -- 90
2021-02-13 01:00:00 4.3 4 Sudoeste 9 Sudoeste 0 -- -- 92
2021-02-13 00:00:00 4.6 7 Sur 12 Oeste 0 -- -- 91
2021-02-12 23:00:00 6.2 9 Oeste 18 Oeste 0 -- -- 86
2021-02-12 22:00:00 6.4 10 Oeste 16 Oeste 0 -- -- 85
2021-02-12 21:00:00 7 7 Oeste 17 Noroeste 0 -- -- 84
2021-02-12 20:00:00 8 8 Oeste 16 Oeste 0 -- -- 82
2021-02-12 19:00:00 9.6 8 Noroeste 24 Noroeste 0 -- -- 76
2021-02-12 18:00:00 10.5 14 Noroeste 22 Noroeste 0 -- -- 70
2021-02-12 17:00:00 10.8 11 Noroeste 19 Noroeste 0 -- -- 71
2021-02-12 16:00:00 10.5 9 Noroeste 26 Oeste 0 -- -- 72
2021-02-12 15:00:00 10.6 15 Noroeste 37 Noroeste 0 -- -- 72
2021-02-12 14:00:00 10.4 21 Noroeste 37 Noroeste 0 -- -- 72
2021-02-12 13:00:00 9.8 17 Noroeste 40 Noroeste 0 -- -- 75
2021-02-12 12:00:00 9.2 26 Noroeste 46 Oeste 0 -- -- 82
2021-02-12 11:00:00 8.1 21 Oeste 45 Noroeste 0 -- -- 87
2021-02-12 10:00:00 7.3 16 Oeste 36 Oeste 0 -- -- 91
2021-02-12 09:00:00 6.9 17 Oeste 38 Oeste 0 -- -- 92
2021-02-12 08:00:00 7 17 Oeste 36 Oeste 0 -- -- 90
2021-02-12 07:00:00 7.4 12 Oeste 35 Noroeste 0 -- -- 92
2021-02-12 06:00:00 8.6 21 Oeste 38 Oeste 0 -- -- 93
2021-02-12 05:00:00 9.1 14 Oeste 32 Oeste 0 -- -- 94
2021-02-12 04:00:00 8.2 8 Sudoeste 18 Sudoeste 2.4 -- -- 96
2021-02-12 03:00:00 7.9 6 Oeste 29 Noroeste 1.2 -- -- 93
2021-02-12 02:00:00 7.8 9 Sudoeste 15 Sur 0 -- -- 90
2021-02-12 01:00:00 7.1 4 Sudoeste 14 Sur 0 -- -- 90
2021-02-12 00:00:00 8.1 7 Sudoeste 20 Sur 0 -- -- 87
2021-02-11 23:00:00 8.5 12 Sur 17 Sur 0 -- -- 92
2021-02-11 22:00:00 9.1 8 Sudoeste 23 Sudoeste 0 -- -- 90
2021-02-11 21:00:00 9.7 12 Sur 23 Oeste 0 -- -- 88
2021-02-11 20:00:00 10.4 9 Oeste 32 Oeste 0 -- -- 85
2021-02-11 19:00:00 11.7 18 Oeste 33 Oeste 0 -- -- 81
2021-02-11 18:00:00 12.6 17 Oeste 39 Oeste 0 -- -- 78
2021-02-11 17:00:00 13.4 23 Oeste 42 Oeste 0 -- -- 77
2021-02-11 16:00:00 13.9 23 Oeste 34 Oeste 0 -- -- 76
2021-02-11 15:00:00 13.3 17 Oeste 30 Oeste 0.2 -- -- 81
2021-02-11 14:00:00 13.4 15 Oeste 24 Oeste 0 -- -- 82
2021-02-11 13:00:00 12.7 12 Sudoeste 18 Sudoeste 0 -- -- 86
2021-02-11 12:00:00 12 9 Oeste 20 Oeste 0 -- -- 88
2021-02-11 11:00:00 11.3 12 Oeste 23 Oeste 0 -- -- 90
2021-02-11 10:00:00 10.4 5 Sudoeste 9 Sur 0 -- -- 90
2021-02-11 09:00:00 9.3 6 Sur 9 Sudoeste 0 -- -- 94
2021-02-11 08:00:00 8.9 3 Sur 15 Oeste 0 -- -- 94
2021-02-11 07:00:00 9.1 9 Oeste 15 Oeste 0 -- -- 94
2021-02-11 06:00:00 8.4 6 Oeste 16 Oeste 0 -- -- 95
2021-02-11 05:00:00 7.2 6 Sudoeste 12 Sudoeste 0 -- -- 94
2021-02-11 04:00:00 6.9 4 Sur 9 Sudeste 0 -- -- 95
2021-02-11 03:00:00 6.9 4 Sudeste 9 Sur 0.2 -- -- 95
2021-02-11 02:00:00 7.4 7 Sudoeste 14 Oeste 0 -- -- 91
2021-02-11 01:00:00 7.8 6 Oeste 14 Oeste 0 -- -- 85
2021-02-11 00:00:00 7.6 12 Oeste 25 Oeste 0 -- -- 85
2021-02-10 23:00:00 5.7 6 Sur 8 Sudoeste 0 -- -- 87
2021-02-10 22:00:00 5.2 7 Sur 12 Oeste 0 -- -- 84
2021-02-10 21:00:00 5.8 3 Sudoeste 9 Sudoeste 0 -- -- 83
2021-02-10 20:00:00 7.3 6 Sur 10 Sur 0 -- -- 76
2021-02-10 19:00:00 8.2 0 Calma 22 Noroeste 0 -- -- 70
2021-02-10 18:00:00 10.4 12 Oeste 32 Oeste 0 -- -- 59
2021-02-10 17:00:00 11.1 14 Oeste 30 Oeste 0 -- -- 53
2021-02-10 16:00:00 11.1 14 Noroeste 38 Oeste 0 -- -- 53
2021-02-10 15:00:00 10.3 17 Oeste 36 Oeste 0 -- -- 58
2021-02-10 14:00:00 9.3 20 Oeste 33 Oeste 0 -- -- 65
2021-02-10 13:00:00 8.7 18 Oeste 36 Noroeste 0 -- -- 69
2021-02-10 12:00:00 7.5 19 Oeste 37 Oeste 0 -- -- 75
2021-02-10 11:00:00 6.9 21 Noroeste 46 Noroeste 0 -- -- 81
2021-02-10 10:00:00 5.8 24 Noroeste 39 Noroeste 0.2 -- -- 90
2021-02-10 09:00:00 5.1 15 Oeste 41 Noroeste 0 -- -- 94
2021-02-10 08:00:00 4.8 22 Noroeste 40 Oeste 0 -- -- 93
2021-02-10 07:00:00 4.7 23 Noroeste 44 Oeste 0 -- -- 91
2021-02-10 06:00:00 4.2 16 Oeste 39 Noroeste 0 -- -- 93
2021-02-10 05:00:00 4.1 26 Noroeste 48 Noroeste 1 -- -- 93
2021-02-10 04:00:00 5.7 26 Oeste 56 Oeste 2.2 -- -- 91
2021-02-10 03:00:00 5.7 24 Oeste 37 Oeste 2.6 -- -- 94
2021-02-10 02:00:00 5.2 13 Oeste 34 Oeste 2.2 -- -- 94
2021-02-10 01:00:00 5.3 20 Oeste 39 Oeste 0.4 -- -- 89
2021-02-10 00:00:00 4.9 26 Oeste 43 Oeste 1.2 -- -- 90
2021-02-09 23:00:00 5.5 23 Oeste 36 Oeste 0.8 -- -- 93
2021-02-09 22:00:00 5.1 17 Oeste 32 Oeste 0 -- -- 92
2021-02-09 21:00:00 5.1 25 Oeste 46 Oeste 0 -- -- 87
2021-02-09 20:00:00 4.1 18 Oeste 31 Noroeste 0.2 -- -- 95
2021-02-09 19:00:00 3.9 15 Noroeste 59 Oeste 2.4 -- -- 92
2021-02-09 18:00:00 6.2 9 Sudoeste 26 Oeste 0 -- -- 89
2021-02-09 17:00:00 6.9 21 Oeste 41 Oeste 0 -- -- 80
2021-02-09 16:00:00 6.2 25 Oeste 43 Oeste 0 -- -- 84
2021-02-09 15:00:00 3.5 15 Sudoeste 41 Noroeste 0.8 -- -- 94
2021-02-09 14:00:00 4.2 23 Noroeste 59 Oeste 2.4 -- -- 93
2021-02-09 13:00:00 7.8 29 Oeste 54 Sudoeste 1 -- -- 86
2021-02-09 12:00:00 8 21 Sudoeste 42 Sudoeste 0 -- -- 83
2021-02-09 11:00:00 8.2 9 Sudoeste 40 Sudoeste 0 -- -- 80
2021-02-09 10:00:00 8.1 26 Sudoeste 42 Sudoeste 0 -- -- 78
2021-02-09 09:00:00 7.6 18 Sudoeste 40 Sur 0 -- -- 81
2021-02-09 08:00:00 6.5 12 Sur 24 Sudoeste 0 -- -- 85
2021-02-09 07:00:00 6.3 14 Sudoeste 37 Sudoeste 0 -- -- 88
2021-02-09 06:00:00 5.9 12 Sudoeste 35 Sudoeste 0.2 -- -- 86
2021-02-09 05:00:00 5.6 14 Sudoeste 26 Sudoeste 0 -- -- 88
2021-02-09 04:00:00 5 10 Sudoeste 27 Sudoeste 0 -- -- 85
2021-02-09 03:00:00 5.2 17 Sudoeste 29 Sudoeste 0.2 -- -- 83
2021-02-09 02:00:00 5 13 Sudoeste 39 Oeste 0.4 -- -- 88
2021-02-09 01:00:00 5.5 15 Oeste 28 Oeste 0 -- -- 91
2021-02-09 00:00:00 5.6 20 Oeste 33 Oeste 0 -- -- 90
2021-02-08 23:00:00 5.5 18 Oeste 39 Oeste 0 -- -- 92
2021-02-08 22:00:00 5.5 20 Oeste 34 Oeste 0 -- -- 93
2021-02-08 21:00:00 6.3 20 Oeste 39 Oeste 0 -- -- 91
2021-02-08 20:00:00 6.4 17 Oeste 33 Oeste 0.2 -- -- 92
2021-02-08 19:00:00 6.2 18 Oeste 35 Noroeste 1.6 -- -- 95
2021-02-08 18:00:00 6.3 18 Noroeste 41 Noroeste 0.8 -- -- 94
2021-02-08 17:00:00 6.3 23 Oeste 44 Noroeste 2 -- -- 92
2021-02-08 16:00:00 5.9 23 Noroeste 59 Oeste 1.2 -- -- 90
2021-02-08 15:00:00 7.4 24 Oeste 50 Oeste 0 -- -- 80
2021-02-08 14:00:00 7.3 26 Oeste 48 Oeste 0 -- -- 78
2021-02-08 13:00:00 7.1 28 Oeste 50 Noroeste 0 -- -- 77
2021-02-08 12:00:00 7.1 25 Oeste 48 Oeste 0 -- -- 82
2021-02-08 11:00:00 6.1 25 Oeste 44 Oeste 0.2 -- -- 86
2021-02-08 10:00:00 5.5 25 Oeste 41 Oeste 0.2 -- -- 90
2021-02-08 09:00:00 4.8 15 Oeste 32 Oeste 0 -- -- 91
2021-02-08 08:00:00 4.7 19 Oeste 35 Oeste 0 -- -- 91
2021-02-08 07:00:00 5.5 19 Oeste 33 Oeste 0 -- -- 92
2021-02-08 06:00:00 5.5 12 Oeste 28 Oeste 0 -- -- 93
2021-02-08 05:00:00 6.1 12 Sudoeste 19 Oeste 0.2 -- -- 95
2021-02-08 04:00:00 6.1 14 Oeste 25 Oeste 2.2 -- -- 95
2021-02-08 03:00:00 6 7 Sudoeste 27 Sudoeste 0.2 -- -- 94
2021-02-08 02:00:00 6.4 18 Sudoeste 36 Oeste 2.4 -- -- 93
2021-02-08 01:00:00 6.5 22 Oeste 33 Sudoeste 0.4 -- -- 88
2021-02-08 00:00:00 6.4 18 Sudoeste 33 Sudoeste 0 -- -- 86
2021-02-07 23:00:00 5.5 12 Sudoeste 22 Oeste 0 -- -- 93
2021-02-07 22:00:00 4.9 7 Sur 17 Sudoeste 0 -- -- 95
2021-02-07 21:00:00 4.9 11 Sudoeste 20 Oeste 0 -- -- 94
2021-02-07 20:00:00 4.5 14 Oeste 31 Oeste 0.4 -- -- 93
2021-02-07 19:00:00 3.8 19 Oeste 34 Oeste 1.2 -- -- 94
2021-02-07 18:00:00 3.9 14 Oeste 32 Oeste 0.8 -- -- 92
2021-02-07 17:00:00 4.8 15 Oeste 36 Oeste 0.6 -- -- 86
2021-02-07 16:00:00 5.2 17 Oeste 42 Noroeste 0.2 -- -- 80
2021-02-07 15:00:00 7.3 21 Noroeste 32 Noroeste 0 -- -- 75
2021-02-07 14:00:00 7.4 14 Oeste 27 Oeste 0 -- -- 68
2021-02-07 13:00:00 7.4 12 Noroeste 23 Oeste 0 -- -- 67
2021-02-07 12:00:00 7.2 7 Oeste 17 Sudoeste 0 -- -- 71
2021-02-07 11:00:00 6.2 6 Sudoeste 10 Oeste 0 -- -- 77
2021-02-07 10:00:00 4.4 3 Sudoeste 6 Sudoeste 0 -- -- 85
2021-02-07 09:00:00 2.9 0 Calma 4 Sur 0 -- -- 91
2021-02-07 08:00:00 2.8 2 Sur 6 Sur 0 -- -- 92
2021-02-07 07:00:00 3 0 Calma 3 Este 0 -- -- 88
2021-02-07 06:00:00 3.1 3 Sudeste 4 Sudeste 0 -- -- 89
2021-02-07 05:00:00 3.2 3 Este 5 Nordeste 0 -- -- 88
2021-02-07 04:00:00 3.4 3 Nordeste 6 Nordeste 0 -- -- 88
2021-02-07 03:00:00 3.7 2 Norte 8 Nordeste 0 -- -- 88
2021-02-07 02:00:00 3.9 5 Norte 8 Norte 0 -- -- 90
2021-02-07 01:00:00 4 0 Calma 10 Norte 0 -- -- 91
2021-02-07 00:00:00 4.1 5 Norte 13 Nordeste 0 -- -- 90
2021-02-06 23:00:00 4.2 8 Norte 14 Nordeste 0 -- -- 91
2021-02-06 22:00:00 4.1 9 Norte 14 Norte 0 -- -- 91
2021-02-06 21:00:00 4.6 5 Nordeste 22 Este 0 -- -- 89
2021-02-06 20:00:00 5.2 7 Nordeste 15 Nordeste 0 -- -- 90
2021-02-06 19:00:00 5.6 10 Nordeste 23 Nordeste 0 -- -- 89
2021-02-06 18:00:00 6 15 Nordeste 28 Nordeste 0 -- -- 86
2021-02-06 17:00:00 6.3 15 Nordeste 31 Nordeste 0 -- -- 88
2021-02-06 16:00:00 7.1 15 Nordeste 28 Nordeste 0.2 -- -- 89
2021-02-06 15:00:00 7.4 11 Nordeste 24 Norte 0 -- -- 95
2021-02-06 14:00:00 7.7 12 Norte 23 Norte 0 -- -- 91
2021-02-06 13:00:00 7.9 11 Norte 15 Norte 0.2 -- -- 94
2021-02-06 12:00:00 8.2 5 Norte 10 Norte 0 -- -- 97
2021-02-06 11:00:00 6.6 6 Norte 9 Norte 0.2 -- -- 99
2021-02-06 10:00:00 6.1 4 Norte 6 Norte 0.2 -- -- 99
2021-02-06 09:00:00 5.7 4 Este 6 Nordeste 0.6 -- -- 99
2021-02-06 08:00:00 5.7 4 Nordeste 6 Nordeste 1.2 -- -- 98
2021-02-06 07:00:00 5.9 4 Nordeste 7 Nordeste 2.4 -- -- 97
2021-02-06 06:00:00 6.2 0 Calma 6 Sudoeste 2.8 -- -- 96
2021-02-06 05:00:00 6.4 4 Sudoeste 25 Sudoeste 1.2 -- -- 93
2021-02-06 04:00:00 7.1 17 Sudoeste 33 Sur 0.2 -- -- 91
2021-02-06 03:00:00 7.1 9 Sur 15 Sur 0 -- -- 88
2021-02-06 02:00:00 7.4 9 Sur 14 Sudeste 0 -- -- 87
2021-02-06 01:00:00 7.9 7 Sudeste 30 Sur 0.4 -- -- 93
2021-02-06 00:00:00 8.4 19 Sudeste 31 Sur 0 -- -- 81
2021-02-05 23:00:00 9.5 18 Sudeste 31 Sur 0 -- -- 81
2021-02-05 22:00:00 7.7 3 Este 9 Este 0 -- -- 94
2021-02-05 21:00:00 7.9 4 Oeste 8 Oeste 0 -- -- 92
2021-02-05 20:00:00 9.7 3 Sudeste 21 Sudeste 0 -- -- 86
2021-02-05 19:00:00 10.3 2 Nordeste 11 Este 0 -- -- 86
2021-02-05 18:00:00 11.3 8 Nordeste 14 Nordeste 0 -- -- 79
2021-02-05 17:00:00 12 7 Nordeste 23 Este 0.2 -- -- 74
2021-02-05 16:00:00 12.2 9 Nordeste 16 Norte 0 -- -- 76
2021-02-05 15:00:00 12.1 7 Nordeste 13 Nordeste 0 -- -- 76
2021-02-05 14:00:00 12.2 8 Nordeste 14 Nordeste 0 -- -- 77
2021-02-05 13:00:00 11.8 3 Sudeste 10 Este 0 -- -- 77
2021-02-05 12:00:00 10.4 5 Este 15 Noroeste 0 -- -- 86
2021-02-05 11:00:00 7.9 6 Nordeste 11 Norte 0.2 -- -- 100
2021-02-05 10:00:00 5.1 8 Noroeste 12 Noroeste 0.4 -- -- 100
2021-02-05 09:00:00 4.3 5 Sur 15 Oeste 0 -- -- 100
2021-02-05 08:00:00 4 6 Sur 14 Sudeste 0.2 -- -- 100
2021-02-05 07:00:00 4.4 5 Norte 10 Noroeste 0 -- -- 100
2021-02-05 06:00:00 4.3 5 Este 10 Sudeste 0 -- -- 100
2021-02-05 05:00:00 4.4 4 Sudeste 18 Noroeste 0.4 -- -- 100
2021-02-05 04:00:00 4.3 3 Oeste 8 Este 0 -- -- 100
2021-02-05 03:00:00 4.4 5 Este 14 Nordeste 0 -- -- 100
2021-02-05 02:00:00 4.2 6 Nordeste 13 Nordeste 0 -- -- 100
2021-02-05 01:00:00 4 4 Nordeste 10 Este 0 -- -- 99
2021-02-05 00:00:00 3.8 7 Nordeste 11 Norte 0 -- -- 98
2021-02-04 23:00:00 4.6 3 Nordeste 8 Sudeste 0 -- -- 97
2021-02-04 22:00:00 5.5 5 Sudeste 13 Sudeste 0 -- -- 98
2021-02-04 21:00:00 5.7 4 Sudeste 14 Sudeste 0 -- -- 98
2021-02-04 20:00:00 5.5 5 Este 11 Este 0 -- -- 98
2021-02-04 19:00:00 5.5 2 Este 6 Noroeste 0.2 -- -- 98
2021-02-04 18:00:00 5.5 5 Norte 10 Noroeste 0 -- -- 97
2021-02-04 17:00:00 5.7 7 Noroeste 17 Norte 0.2 -- -- 97
2021-02-04 16:00:00 5.7 10 Norte 27 Norte 0.8 -- -- 97
2021-02-04 15:00:00 5.9 15 Norte 31 Norte 0.4 -- -- 97
2021-02-04 14:00:00 5.8 17 Norte 33 Norte 0.2 -- -- 94
2021-02-04 13:00:00 8.2 16 Norte 26 Norte 0 -- -- 92
2021-02-04 12:00:00 8.6 8 Nordeste 16 Nordeste 0 -- -- 97
2021-02-04 11:00:00 8 6 Nordeste 13 Nordeste 0 -- -- 97
2021-02-04 10:00:00 7.6 7 Nordeste 12 Este 0 -- -- 97
2021-02-04 09:00:00 7.4 2 Nordeste 5 Sur 0 -- -- 96
2021-02-04 08:00:00 7.3 4 Este 9 Sudeste 0 -- -- 96
2021-02-04 07:00:00 7.3 3 Noroeste 8 Sudeste 0.2 -- -- 97
2021-02-04 06:00:00 7.5 4 Sudeste 6 Sudeste 0 -- -- 97
2021-02-04 05:00:00 7.4 0 Calma 4 Noroeste 0 -- -- 96
2021-02-04 04:00:00 7.7 3 Sur 8 Sur 0.2 -- -- 93
2021-02-04 03:00:00 7.9 4 Sur 10 Sudoeste 0.6 -- -- 93
2021-02-04 02:00:00 8.1 4 Sudoeste 11 Sudoeste 0.4 -- -- 93
2021-02-04 01:00:00 8 6 Sur 12 Sudoeste 0.2 -- -- 94
2021-02-04 00:00:00 8.4 7 Sudoeste 12 Sudoeste 0.4 -- -- 92
2021-02-03 23:00:00 8.4 6 Sudoeste 17 Sudoeste 0.8 -- -- 94
2021-02-03 22:00:00 8.8 11 Oeste 24 Sudoeste 1 -- -- 95
2021-02-03 21:00:00 9.1 8 Sudoeste 14 Oeste 1.2 -- -- 96
2021-02-03 20:00:00 9.4 8 Noroeste 27 Oeste 0.2 -- -- 94
2021-02-03 19:00:00 10.4 11 Oeste 22 Oeste 0.2 -- -- 88
2021-02-03 18:00:00 10.9 6 Noroeste 22 Noroeste 0 -- -- 85
2021-02-03 17:00:00 11.3 12 Noroeste 30 Oeste 0 -- -- 81
2021-02-03 16:00:00 11.8 15 Noroeste 33 Noroeste 0 -- -- 82
2021-02-03 15:00:00 12.3 20 Noroeste 41 Oeste 0 -- -- 78
2021-02-03 14:00:00 12 18 Oeste 34 Noroeste 0.2 -- -- 81
2021-02-03 13:00:00 11.8 15 Oeste 34 Oeste 0 -- -- 80
2021-02-03 12:00:00 12 15 Oeste 32 Oeste 0 -- -- 78
2021-02-03 11:00:00 10.7 12 Oeste 24 Oeste 0 -- -- 82
2021-02-03 10:00:00 9 5 Sur 11 Sur 0 -- -- 80
2021-02-03 09:00:00 8.5 7 Sur 22 Sur 0 -- -- 81
2021-02-03 08:00:00 8.4 16 Sudoeste 29 Sur 0 -- -- 82
2021-02-03 07:00:00 7.4 12 Sudoeste 25 Sudoeste 0 -- -- 86
2021-02-03 06:00:00 6.9 10 Sudoeste 17 Sudoeste 0 -- -- 89
2021-02-03 05:00:00 3.7 3 Sudoeste 8 Oeste 0 -- -- 94
2021-02-03 04:00:00 4.2 2 Nordeste 17 Sudoeste 0 -- -- 91
2021-02-03 03:00:00 5.7 12 Sudoeste 22 Sudoeste 0 -- -- 88
2021-02-03 02:00:00 4.8 12 Sudoeste 19 Sudoeste 0 -- -- 94
2021-02-03 01:00:00 5.1 5 Sur 21 Sudoeste 0 -- -- 93
2021-02-03 00:00:00 5.6 10 Sudoeste 20 Sudoeste 0 -- -- 90
2021-02-02 23:00:00 7.1 9 Sudoeste 18 Sudoeste 0 -- -- 85
2021-02-02 22:00:00 7.3 8 Sudoeste 29 Oeste 0 -- -- 84
2021-02-02 21:00:00 8.5 17 Oeste 37 Oeste 0 -- -- 81
2021-02-02 20:00:00 8.8 20 Oeste 35 Oeste 0 -- -- 82
2021-02-02 19:00:00 9.3 15 Oeste 30 Oeste 0 -- -- 83
2021-02-02 18:00:00 10.9 16 Oeste 31 Oeste 0 -- -- 80
2021-02-02 17:00:00 11.9 16 Oeste 32 Oeste 0 -- -- 75
2021-02-02 16:00:00 12.6 17 Oeste 35 Noroeste 0 -- -- 73
2021-02-02 15:00:00 13.1 18 Noroeste 36 Noroeste 0 -- -- 71
2021-02-02 14:00:00 13.1 19 Oeste 36 Oeste 0 -- -- 71
2021-02-02 13:00:00 13.3 21 Oeste 40 Oeste 0 -- -- 69
2021-02-02 12:00:00 11.9 21 Oeste 36 Oeste 0 -- -- 76
2021-02-02 11:00:00 10.7 15 Oeste 26 Oeste 0 -- -- 85
2021-02-02 10:00:00 9.5 10 Oeste 17 Oeste 0 -- -- 90
2021-02-02 09:00:00 8.7 8 Oeste 17 Oeste 0 -- -- 94
2021-02-02 08:00:00 8.6 7 Oeste 17 Oeste 0 -- -- 94
2021-02-02 07:00:00 8.6 9 Oeste 19 Oeste 0 -- -- 94
2021-02-02 06:00:00 8.8 7 Oeste 18 Sudoeste 0 -- -- 93
2021-02-02 05:00:00 8.9 10 Oeste 24 Oeste 0 -- -- 92
2021-02-02 04:00:00 8.9 17 Oeste 29 Oeste 0 -- -- 92
2021-02-02 03:00:00 8.3 9 Oeste 22 Oeste 0 -- -- 94
2021-02-02 02:00:00 8.8 12 Oeste 22 Oeste 0 -- -- 92
2021-02-02 01:00:00 8.8 15 Oeste 28 Oeste 0 -- -- 93
2021-02-02 00:00:00 8.1 16 Oeste 32 Oeste 0 -- -- 94
2021-02-01 23:00:00 8.8 17 Oeste 33 Oeste 0 -- -- 91
2021-02-01 22:00:00 8.6 8 Oeste 14 Oeste 0 -- -- 87
2021-02-01 21:00:00 8.6 3 Sudeste 15 Noroeste 0 -- -- 86
2021-02-01 20:00:00 9.4 11 Sur 31 Oeste 0 -- -- 80
2021-02-01 19:00:00 9.7 12 Sudoeste 35 Oeste 0 -- -- 80
2021-02-01 18:00:00 11.1 13 Oeste 39 Oeste 0 -- -- 74
2021-02-01 17:00:00 11.3 21 Oeste 40 Oeste 0 -- -- 73
2021-02-01 16:00:00 11.9 23 Oeste 44 Oeste 0 -- -- 71
2021-02-01 15:00:00 12.2 17 Noroeste 41 Oeste 0 -- -- 72
2021-02-01 14:00:00 11.8 24 Oeste 51 Oeste 0 -- -- 74
2021-02-01 13:00:00 10.8 26 Oeste 46 Oeste 0 -- -- 79
2021-02-01 12:00:00 10.4 23 Oeste 53 Oeste 0 -- -- 80
2021-02-01 11:00:00 9.6 26 Oeste 50 Noroeste 0 -- -- 82
2021-02-01 10:00:00 8.3 24 Oeste 48 Oeste 0 -- -- 85
2021-02-01 09:00:00 7.3 34 Oeste 48 Oeste 0 -- -- 87
2021-02-01 08:00:00 7.5 27 Oeste 50 Oeste 0 -- -- 87
2021-02-01 07:00:00 7.3 35 Oeste 48 Oeste 0 -- -- 88
2021-02-01 06:00:00 7.2 21 Oeste 51 Oeste 0 -- -- 88
2021-02-01 05:00:00 7.4 29 Oeste 50 Oeste 0 -- -- 88
2021-02-01 04:00:00 7.2 28 Oeste 45 Oeste 0 -- -- 88
2021-02-01 03:00:00 7.6 17 Oeste 38 Oeste 0 -- -- 90
2021-02-01 02:00:00 8.4 21 Noroeste 38 Noroeste 0 -- -- 91
2021-02-01 01:00:00 8.7 22 Noroeste 52 Oeste 0 -- -- 90
2021-02-01 00:00:00 9.2 24 Noroeste 47 Oeste 0 -- -- 89
2021-01-31 23:00:00 9.8 23 Oeste 51 Oeste 0 -- -- 87
2021-01-31 22:00:00 9.9 31 Oeste 51 Oeste 0 -- -- 87
2021-01-31 21:00:00 9.5 26 Oeste 46 Oeste 0 -- -- 86
2021-01-31 20:00:00 10.5 29 Oeste 44 Oeste 0 -- -- 82
2021-01-31 19:00:00 11.5 24 Oeste 50 Oeste 0 -- -- 83
2021-01-31 18:00:00 13.1 25 Oeste 46 Oeste 0 -- -- 84
2021-01-31 17:00:00 13.5 21 Oeste 43 Noroeste 0 -- -- 83
2021-01-31 16:00:00 13.2 26 Noroeste 51 Noroeste 0 -- -- 86
2021-01-31 15:00:00 11.8 21 Oeste 37 Noroeste 0 -- -- 91
2021-01-31 14:00:00 10.8 25 Oeste 49 Oeste 0 -- -- 93
2021-01-31 13:00:00 10.1 25 Oeste 55 Oeste 0 -- -- 91
2021-01-31 12:00:00 9.3 28 Oeste 50 Oeste 0 -- -- 91
2021-01-31 11:00:00 7.9 29 Oeste 42 Oeste 0.4 -- -- 95
2021-01-31 10:00:00 7.1 23 Oeste 40 Oeste 0 -- -- 96
2021-01-31 09:00:00 6.6 22 Oeste 43 Oeste 0 -- -- 95
2021-01-31 08:00:00 6.5 25 Oeste 43 Oeste 0 -- -- 90
2021-01-31 07:00:00 6.3 22 Oeste 42 Oeste 0.2 -- -- 89
2021-01-31 06:00:00 5.9 20 Oeste 41 Oeste 0 -- -- 88
2021-01-31 05:00:00 5.7 19 Oeste 38 Oeste 0 -- -- 88
2021-01-31 04:00:00 5.7 19 Oeste 36 Oeste 0 -- -- 85
2021-01-31 03:00:00 5.8 18 Oeste 39 Noroeste 0 -- -- 85
2021-01-31 02:00:00 5.8 21 Oeste 42 Noroeste 0 -- -- 86
2021-01-31 01:00:00 6 26 Noroeste 46 Noroeste 0 -- -- 87
2021-01-31 00:00:00 5.6 27 Noroeste 43 Oeste 0 -- -- 90
2021-01-30 23:00:00 5.4 19 Oeste 37 Oeste 0 -- -- 92
2021-01-30 22:00:00 5.4 21 Oeste 44 Noroeste 0.2 -- -- 92
2021-01-30 21:00:00 6.1 21 Oeste 42 Oeste 0 -- -- 90
2021-01-30 20:00:00 6.1 19 Noroeste 51 Noroeste 0 -- -- 88
2021-01-30 19:00:00 6.9 21 Oeste 58 Noroeste 0 -- -- 81
2021-01-30 18:00:00 7.4 26 Oeste 48 Oeste 0 -- -- 79
2021-01-30 17:00:00 8.1 25 Oeste 58 Oeste 0 -- -- 78
2021-01-30 16:00:00 8.4 33 Oeste 55 Oeste 0 -- -- 75
2021-01-30 15:00:00 9.8 32 Noroeste 64 Noroeste 0 -- -- 61
2021-01-30 14:00:00 8.7 32 Noroeste 54 Oeste 0 -- -- 66
2021-01-30 13:00:00 9.1 32 Noroeste 62 Noroeste 0 -- -- 69
2021-01-30 12:00:00 8.1 31 Noroeste 52 Noroeste 0 -- -- 82
2021-01-30 11:00:00 7.4 24 Oeste 50 Oeste 0 -- -- 85
2021-01-30 10:00:00 7.4 27 Oeste 47 Oeste 0.2 -- -- 86
2021-01-30 09:00:00 7.3 21 Oeste 40 Noroeste 0 -- -- 88
2021-01-30 08:00:00 7.4 21 Oeste 39 Oeste 0 -- -- 91
2021-01-30 07:00:00 7.8 19 Oeste 48 Oeste 0.2 -- -- 93
2021-01-30 06:00:00 8.2 30 Oeste 54 Oeste 0.2 -- -- 84
2021-01-30 05:00:00 7.6 30 Noroeste 54 Noroeste 2.2 -- -- 89
2021-01-30 04:00:00 9.5 34 Oeste 51 Oeste 0 -- -- 87
2021-01-30 03:00:00 9.2 26 Oeste 51 Oeste 0 -- -- 88
2021-01-30 02:00:00 9.4 32 Oeste 57 Oeste 0 -- -- 86
2021-01-30 01:00:00 9.4 23 Oeste 36 Oeste 0 -- -- 88
2021-01-30 00:00:00 8.6 14 Oeste 39 Noroeste 0 -- -- 93
2021-01-29 23:00:00 8.9 20 Oeste 42 Noroeste 0 -- -- 91
2021-01-29 22:00:00 10.3 23 Oeste 42 Oeste 0 -- -- 84
2021-01-29 21:00:00 10.6 27 Oeste 39 Oeste 0 -- -- 82
2021-01-29 20:00:00 11.5 23 Oeste 31 Oeste 0 -- -- 77
2021-01-29 19:00:00 12.1 6 Sudoeste 9 Sudoeste 0 -- -- 85
2021-01-29 18:00:00 14.1 4 Sudoeste 12 Sudoeste 0 -- -- 78
2021-01-29 17:00:00 15 10 Sudoeste 18 Oeste 0 -- -- 73
2021-01-29 16:00:00 14.5 10 Oeste 19 Oeste 0 -- -- 73
2021-01-29 15:00:00 13.4 12 Oeste 20 Oeste 0 -- -- 77
2021-01-29 14:00:00 13.4 9 Oeste 21 Oeste 0 -- -- 79
2021-01-29 13:00:00 12 14 Oeste 22 Oeste 0 -- -- 86
2021-01-29 12:00:00 10.7 12 Oeste 23 Oeste 0 -- -- 88
2021-01-29 11:00:00 10.1 9 Sudoeste 22 Oeste 0 -- -- 95
2021-01-29 10:00:00 8.4 9 Sudoeste 19 Sudoeste 0 -- -- 99
2021-01-29 09:00:00 8.1 10 Sudoeste 16 Sudoeste 0 -- -- 99
2021-01-29 08:00:00 8.1 8 Sudoeste 12 Sudoeste 0 -- -- 99
2021-01-29 07:00:00 7.9 4 Oeste 13 Oeste 0 -- -- 98
2021-01-29 06:00:00 7.5 5 Sur 17 Sudoeste 0 -- -- 96
2021-01-29 05:00:00 7.3 8 Sudoeste 13 Sudoeste 0 -- -- 97
2021-01-29 04:00:00 6.6 9 Sur 15 Oeste 0 -- -- 93
2021-01-29 03:00:00 7.3 5 Oeste 11 Oeste 0 -- -- 91
2021-01-29 02:00:00 7.7 3 Sudoeste 8 Sur 0 -- -- 84
2021-01-29 01:00:00 8.6 5 Sur 20 Sudoeste 0 -- -- 80
2021-01-29 00:00:00 10.2 14 Sudoeste 24 Sudoeste 0 -- -- 74
2021-01-28 23:00:00 10.6 14 Oeste 33 Oeste 0 -- -- 76
2021-01-28 22:00:00 11.8 22 Oeste 32 Oeste 0 -- -- 73
2021-01-28 21:00:00 11.9 14 Oeste 24 Oeste 0 -- -- 74
2021-01-28 20:00:00 12.4 9 Oeste 17 Oeste 0 -- -- 83
2021-01-28 19:00:00 14 3 Oeste 10 Oeste 0 -- -- 83
2021-01-28 18:00:00 16.3 4 Noroeste 15 Oeste 0 -- -- 74
2021-01-28 17:00:00 17.4 10 Oeste 22 Oeste 0 -- -- 67
2021-01-28 16:00:00 17.8 12 Noroeste 22 Oeste 0 -- -- 65
2021-01-28 15:00:00 17.9 12 Oeste 22 Sudoeste 0 -- -- 64
2021-01-28 14:00:00 17.1 10 Oeste 24 Oeste 0 -- -- 67
2021-01-28 13:00:00 15.9 12 Oeste 21 Oeste 0 -- -- 74
2021-01-28 12:00:00 14.3 8 Oeste 13 Oeste 0 -- -- 77
2021-01-28 11:00:00 10.7 2 Oeste 5 Oeste 0 -- -- 89
2021-01-28 10:00:00 7.8 2 Sudoeste 8 Sudoeste 0 -- -- 98
2021-01-28 09:00:00 4.9 4 Sudoeste 11 Sur 0 -- -- 99
2021-01-28 08:00:00 4.9 5 Sur 8 Sur 0 -- -- 99
2021-01-28 07:00:00 5 3 Sudoeste 10 Sudoeste 0 -- -- 99
2021-01-28 06:00:00 5.4 5 Sudoeste 8 Sudoeste 0 -- -- 99
2021-01-28 05:00:00 5.7 5 Sudoeste 10 Sur 0 -- -- 99
2021-01-28 04:00:00 6.3 4 Sudoeste 13 Sudoeste 0 -- -- 99
2021-01-28 03:00:00 7 6 Sudoeste 12 Sur 0 -- -- 100
2021-01-28 02:00:00 6.3 4 Sudeste 8 Sudoeste 0 -- -- 99
2021-01-28 01:00:00 7.2 4 Sudoeste 8 Sudoeste 0 -- -- 99
2021-01-28 00:00:00 8.1 6 Sudoeste 12 Sur 0 -- -- 99
2021-01-27 23:00:00 8.7 6 Sudoeste 8 Oeste 0 -- -- 98
2021-01-27 22:00:00 9.4 4 Sudoeste 9 Sudoeste 0 -- -- 98
2021-01-27 21:00:00 10 5 Sudoeste 9 Sudoeste 0 -- -- 96
2021-01-27 20:00:00 11.3 7 Oeste 8 Oeste 0 -- -- 95
2021-01-27 19:00:00 12.6 0 Calma 5 Noroeste 0 -- -- 90
2021-01-27 18:00:00 14.6 3 Noroeste 9 Noroeste 0 -- -- 82
2021-01-27 17:00:00 15.4 6 Noroeste 13 Noroeste 0 -- -- 79
2021-01-27 16:00:00 14.8 8 Norte 15 Noroeste 0 -- -- 80
2021-01-27 15:00:00 15.2 8 Noroeste 18 Noroeste 0 -- -- 79
2021-01-27 14:00:00 14.4 12 Noroeste 20 Noroeste 0 -- -- 82
2021-01-27 13:00:00 13.7 12 Noroeste 24 Noroeste 0 -- -- 86
2021-01-27 12:00:00 13.1 13 Noroeste 22 Oeste 0 -- -- 89
2021-01-27 11:00:00 11.4 14 Oeste 28 Noroeste 0 -- -- 94
2021-01-27 10:00:00 10.5 11 Oeste 24 Noroeste 0 -- -- 96
2021-01-27 09:00:00 10.4 8 Noroeste 27 Oeste 0 -- -- 97
2021-01-27 08:00:00 10.6 13 Noroeste 27 Noroeste 0 -- -- 97
2021-01-27 07:00:00 10.8 13 Noroeste 22 Noroeste 0 -- -- 97
2021-01-27 06:00:00 10.9 12 Noroeste 22 Oeste 0 -- -- 98
2021-01-27 05:00:00 11.4 13 Noroeste 22 Oeste 0 -- -- 98
2021-01-27 04:00:00 11.5 14 Noroeste 26 Noroeste 0 -- -- 98
2021-01-27 03:00:00 11.5 14 Noroeste 27 Oeste 0 -- -- 99
2021-01-27 02:00:00 11.6 19 Oeste 31 Oeste 0 -- -- 99
2021-01-27 01:00:00 11.7 16 Noroeste 28 Noroeste 0.2 -- -- 99
2021-01-27 00:00:00 11.6 13 Oeste 24 Oeste 0 -- -- 99
2021-01-26 23:00:00 11.7 11 Oeste 22 Oeste 0 -- -- 99
2021-01-26 22:00:00 11.9 10 Oeste 20 Oeste 0 -- -- 99
2021-01-26 21:00:00 12 7 Oeste 15 Oeste 0.2 -- -- 99
2021-01-26 20:00:00 12.2 10 Noroeste 19 Noroeste 0 -- -- 99
2021-01-26 19:00:00 12.3 10 Noroeste 19 Oeste 0.2 -- -- 98
2021-01-26 18:00:00 12.4 10 Noroeste 22 Noroeste 0 -- -- 97
2021-01-26 17:00:00 13 13 Noroeste 26 Noroeste 0 -- -- 93
2021-01-26 16:00:00 13.8 11 Noroeste 31 Oeste 0 -- -- 89
2021-01-26 15:00:00 13.3 14 Oeste 28 Oeste 0 -- -- 91
2021-01-26 14:00:00 12.9 14 Oeste 28 Oeste 0 -- -- 93
2021-01-26 13:00:00 12.2 13 Oeste 24 Oeste 0 -- -- 94
2021-01-26 12:00:00 11.5 13 Oeste 21 Oeste 0 -- -- 99
2021-01-26 11:00:00 10.7 14 Oeste 19 Oeste 0 -- -- 99
2021-01-26 10:00:00 10 9 Oeste 14 Oeste 0.2 -- -- 100
2021-01-26 09:00:00 9.7 6 Oeste 15 Oeste 0 -- -- 99
2021-01-26 08:00:00 9.7 9 Oeste 21 Oeste 0 -- -- 99
2021-01-26 07:00:00 9.6 8 Oeste 18 Oeste 0.2 -- -- 100
2021-01-26 06:00:00 9.7 10 Oeste 22 Noroeste 0.2 -- -- 99
2021-01-26 05:00:00 9.7 10 Noroeste 20 Oeste 0 -- -- 99
2021-01-26 04:00:00 9.7 8 Oeste 19 Oeste 0.4 -- -- 99
2021-01-26 03:00:00 9.7 12 Noroeste 21 Noroeste 0.4 -- -- 99
2021-01-26 02:00:00 9.5 9 Noroeste 15 Oeste 0 -- -- 99
2021-01-26 01:00:00 9.5 8 Noroeste 18 Oeste 0.2 -- -- 99
2021-01-26 00:00:00 8.7 3 Sudoeste 5 Oeste 0 -- -- 99
2021-01-25 23:00:00 8.6 0 Calma 6 Nordeste 1.4 -- -- 99
2021-01-25 22:00:00 8.8 4 Nordeste 12 Oeste 1.4 -- -- 98
2021-01-25 21:00:00 9.5 6 Nordeste 29 Oeste 1.4 -- -- 97
2021-01-25 20:00:00 10.5 14 Noroeste 29 Noroeste 0 -- -- 96
2021-01-25 19:00:00 10.7 17 Noroeste 32 Noroeste 0 -- -- 95
2021-01-25 18:00:00 10.8 18 Noroeste 35 Noroeste 0 -- -- 95
2021-01-25 17:00:00 11 22 Oeste 43 Oeste 0 -- -- 96
2021-01-25 16:00:00 10.9 21 Oeste 37 Oeste 0.4 -- -- 97
2021-01-25 15:00:00 10.9 20 Noroeste 41 Oeste 0.2 -- -- 94
2021-01-25 14:00:00 11.1 20 Oeste 46 Oeste 0 -- -- 94
2021-01-25 13:00:00 10.5 20 Oeste 50 Oeste 0 -- -- 95
2021-01-25 12:00:00 10.7 33 Oeste 53 Oeste 0 -- -- 90
2021-01-25 11:00:00 10.4 28 Oeste 47 Oeste 0 -- -- 89
2021-01-25 10:00:00 10.3 24 Oeste 49 Oeste 0 -- -- 88
2021-01-25 09:00:00 9.6 34 Oeste 54 Oeste 0 -- -- 89
2021-01-25 08:00:00 9.3 31 Oeste 52 Oeste 0 -- -- 89
2021-01-25 07:00:00 9.1 27 Oeste 57 Oeste 0 -- -- 89
2021-01-25 06:00:00 8.9 33 Oeste 51 Oeste 0 -- -- 89
2021-01-25 05:00:00 8.6 28 Oeste 49 Oeste 0 -- -- 89
2021-01-25 04:00:00 8.7 29 Oeste 42 Oeste 0 -- -- 87
2021-01-25 03:00:00 7.8 15 Oeste 24 Oeste 0 -- -- 89
2021-01-25 02:00:00 7.2 9 Sudoeste 20 Oeste 0 -- -- 88
2021-01-25 01:00:00 7.2 12 Sudoeste 24 Oeste 0 -- -- 85
2021-01-25 00:00:00 6.9 10 Oeste 19 Oeste 0 -- -- 85